Time;durP1;ratioP1;P1;durP2;ratioP2;P2;SDS_P1;SDS_P2;PMS_P1;PMS_P2;Temp;Humidity;BMP_temperature;BMP_pressure;BME280_temperature;BME280_humidity;BME280_pressure;Samples;Min_cycle;Max_cycle;Signal;HPM_P1;HPM_P2
2021/07/19 00:02:05;;;;;;;7.75;4.47;;;19.10;78.50;;;;;;5048545;28;20037;-82
2021/07/19 00:04:37;;;;;;;6.78;4.60;;;19.20;78.50;;;;;;5048504;28;20389;-81
2021/07/19 00:07:11;;;;;;;9.65;4.40;;;19.20;78.50;;;;;;5050915;28;20505;-82
2021/07/19 00:09:44;;;;;;;8.32;4.38;;;19.20;78.60;;;;;;5036838;28;20430;-82
2021/07/19 00:12:16;;;;;;;10.98;4.65;;;19.20;78.60;;;;;;5018072;28;20503;-81
2021/07/19 00:14:48;;;;;;;10.80;5.22;;;19.10;78.60;;;;;;5038069;28;20284;-82
2021/07/19 00:17:27;;;;;;;8.95;5.00;;;19.10;78.80;;;;;;5051549;28;20482;-82
2021/07/19 00:19:55;;;;;;;9.27;4.72;;;19.00;78.80;;;;;;5052027;28;20048;-83
2021/07/19 00:22:24;;;;;;;13.00;4.78;;;19.00;79.00;;;;;;5051977;28;20375;-80
2021/07/19 00:24:52;;;;;;;9.98;4.93;;;19.00;79.10;;;;;;5052049;28;20045;-82
2021/07/19 00:27:28;;;;;;;13.27;5.00;;;18.90;79.10;;;;;;5051959;28;20045;-81
2021/07/19 00:29:59;;;;;;;11.07;4.85;;;18.90;79.30;;;;;;5051870;28;20116;-81
2021/07/19 00:32:32;;;;;;;13.43;4.80;;;18.80;79.40;;;;;;5049736;28;20049;-81
2021/07/19 00:35:01;;;;;;;14.23;5.50;;;18.80;79.50;;;;;;5046099;28;20387;-81
2021/07/19 00:37:32;;;;;;;11.68;5.63;;;18.70;79.60;;;;;;5031839;28;20422;-81
2021/07/19 00:40:10;;;;;;;9.93;5.63;;;18.70;79.80;;;;;;5030665;28;20522;-81
2021/07/19 00:42:44;;;;;;;13.30;6.05;;;18.60;80.20;;;;;;5033467;28;20471;-81
2021/07/19 00:45:18;;;;;;;11.10;6.00;;;18.40;80.30;;;;;;5035705;28;20057;-81
2021/07/19 00:47:53;;;;;;;11.00;5.72;;;18.40;80.60;;;;;;5034728;28;20038;-81
2021/07/19 00:50:22;;;;;;;11.23;5.60;;;18.30;80.80;;;;;;5051140;28;20057;-81
2021/07/19 00:52:59;;;;;;;8.13;5.32;;;18.30;81.00;;;;;;5050954;28;20045;-81
2021/07/19 00:55:41;;;;;;;7.97;5.93;;;18.20;81.20;;;;;;5050136;28;20042;-81
2021/07/19 00:58:17;;;;;;;11.77;6.07;;;18.10;81.70;;;;;;5018334;28;20053;-82
2021/07/19 01:00:53;;;;;;;8.10;5.63;;;18.10;81.70;;;;;;5035754;28;20050;-81
2021/07/19 01:03:23;;;;;;;7.22;5.10;;;18.10;81.70;;;;;;5034955;28;20052;-82
2021/07/19 01:06:01;;;;;;;8.20;5.70;;;18.00;81.80;;;;;;5024091;28;20049;-81
2021/07/19 01:08:33;;;;;;;7.97;5.65;;;18.00;81.90;;;;;;5037575;28;20049;-82
2021/07/19 01:11:04;;;;;;;14.07;5.63;;;18.00;82.00;;;;;;5057090;28;20407;-81
2021/07/19 01:13:35;;;;;;;11.80;5.97;;;17.90;82.00;;;;;;5050752;28;20049;-81
2021/07/19 01:16:03;;;;;;;9.13;6.32;;;17.90;82.20;;;;;;5033903;28;20041;-81
2021/07/19 01:18:33;;;;;;;10.13;5.43;;;17.90;82.40;;;;;;5035210;28;20053;-81
2021/07/19 01:21:03;;;;;;;12.43;5.72;;;17.80;82.60;;;;;;5035000;28;20518;-81
2021/07/19 01:24:05;;;;;;;9.35;5.80;;;17.80;82.70;;;;;;5034936;28;20482;-81
2021/07/19 01:27:12;;;;;;;8.52;5.97;;;17.80;82.90;;;;;;5032989;28;20376;-81
2021/07/19 01:29:41;;;;;;;14.73;6.47;;;17.80;83.00;;;;;;5033291;28;20061;-81
2021/07/19 01:32:12;;;;;;;15.05;6.50;;;17.80;82.80;;;;;;5034765;28;20068;-81
2021/07/19 01:34:44;;;;;;;12.80;6.45;;;17.80;83.00;;;;;;5033886;28;20044;-81
2021/07/19 01:37:13;;;;;;;12.18;6.82;;;17.80;83.20;;;;;;5051714;28;20045;-81
2021/07/19 01:40:07;;;;;;;14.63;7.22;;;17.80;83.30;;;;;;5035824;28;20045;-82
2021/07/19 01:42:36;;;;;;;13.10;6.93;;;17.70;83.60;;;;;;5033007;28;20483;-82
2021/07/19 01:45:12;;;;;;;16.70;7.65;;;17.60;83.80;;;;;;5034225;28;20060;-82
2021/07/19 01:47:46;;;;;;;12.52;6.80;;;17.50;84.10;;;;;;5034664;28;20057;-82
2021/07/19 01:50:16;;;;;;;13.65;7.20;;;17.40;84.10;;;;;;5033399;28;20038;-82
2021/07/19 01:53:15;;;;;;;12.18;6.75;;;17.40;84.30;;;;;;5020167;28;20058;-82
2021/07/19 01:55:44;;;;;;;16.40;7.30;;;17.30;84.50;;;;;;5033775;28;20045;-81
2021/07/19 01:58:16;;;;;;;18.45;7.45;;;17.20;84.80;;;;;;5034220;28;20403;-81
2021/07/19 02:00:56;;;;;;;;;;;17.20;85.00;;;;;;5064964;28;20053;-82
2021/07/19 02:03:24;;;;;;;11.07;6.90;;;17.20;85.00;;;;;;5049531;28;19921;-82
2021/07/19 02:05:58;;;;;;;13.68;6.30;;;17.20;84.90;;;;;;5033049;28;20053;-82
2021/07/19 02:08:27;;;;;;;14.05;6.35;;;17.30;85.00;;;;;;5016600;28;20061;-82
2021/07/19 02:11:14;;;;;;;14.50;7.25;;;17.30;85.00;;;;;;5013615;28;20053;-81
2021/07/19 02:13:45;;;;;;;23.17;8.95;;;17.30;85.10;;;;;;5029425;28;20042;-82
2021/07/19 02:16:17;;;;;;;;;;;17.20;85.20;;;;;;5030041;28;20054;-82
2021/07/19 02:18:51;;;;;;;19.38;7.57;;;17.20;85.20;;;;;;5029455;28;19926;-82
2021/07/19 02:21:26;;;;;;;19.08;8.27;;;17.10;85.20;;;;;;5029446;28;20061;-82
2021/07/19 02:24:11;;;;;;;17.15;8.60;;;17.00;85.40;;;;;;5028954;28;20037;-82
2021/07/19 02:26:53;;;;;;;23.00;9.13;;;16.90;85.50;;;;;;5028843;28;20121;-82
2021/07/19 02:29:24;;;;;;;22.75;9.35;;;16.90;85.80;;;;;;5029239;28;20495;-82
2021/07/19 02:32:00;;;;;;;22.30;8.55;;;16.90;86.00;;;;;;5039950;28;20049;-82
2021/07/19 02:34:31;;;;;;;20.77;8.73;;;16.90;86.10;;;;;;5049021;28;20045;-82
2021/07/19 02:37:03;;;;;;;23.47;9.40;;;16.80;86.30;;;;;;5033984;28;20045;-81
2021/07/19 02:39:45;;;;;;;17.90;8.75;;;16.80;86.40;;;;;;5038415;28;20057;-81
2021/07/19 02:42:14;;;;;;;20.98;9.00;;;16.80;86.50;;;;;;5053273;28;20045;-82
2021/07/19 02:44:45;;;;;;;21.15;8.10;;;16.70;86.60;;;;;;5053281;28;20055;-81
2021/07/19 02:47:38;;;;;;;18.65;8.38;;;16.60;86.80;;;;;;5068598;28;20044;-81
2021/07/19 02:50:09;;;;;;;18.88;9.82;;;16.60;86.80;;;;;;5053346;28;20107;-82
2021/07/19 02:52:39;;;;;;;18.75;9.60;;;16.60;86.90;;;;;;5051894;28;20068;-82
2021/07/19 02:55:10;;;;;;;22.08;8.35;;;16.50;87.00;;;;;;5068108;28;20049;-82
2021/07/19 02:57:45;;;;;;;13.35;7.57;;;16.50;87.10;;;;;;5068477;28;20048;-82
2021/07/19 03:00:16;;;;;;;16.13;7.85;;;16.40;87.10;;;;;;5066105;28;20055;-82
2021/07/19 03:02:54;;;;;;;18.23;8.30;;;16.40;87.30;;;;;;5053062;28;20041;-82
2021/07/19 03:05:28;;;;;;;22.38;8.80;;;16.40;87.30;;;;;;5051566;28;20049;-82
2021/07/19 03:08:01;;;;;;;26.60;10.32;;;16.40;87.50;;;;;;5064794;28;20051;-82
2021/07/19 03:11:03;;;;;;;23.83;10.80;;;16.30;87.40;;;;;;5048400;28;20045;-82
2021/07/19 03:13:33;;;;;;;22.75;9.32;;;16.30;87.50;;;;;;5032693;28;20061;-82
2021/07/19 03:16:05;;;;;;;28.35;10.43;;;16.30;87.50;;;;;;5031779;28;20076;-82
2021/07/19 03:18:44;;;;;;;19.38;9.38;;;16.20;87.50;;;;;;5031647;28;20053;-82
2021/07/19 03:21:16;;;;;;;15.05;8.43;;;16.20;87.70;;;;;;5064434;28;20045;-82
2021/07/19 03:23:58;;;;;;;16.42;8.90;;;16.10;87.80;;;;;;5047481;28;20038;-82
2021/07/19 03:26:26;;;;;;;17.85;8.45;;;16.10;87.90;;;;;;5032618;28;20053;-82
2021/07/19 03:28:58;;;;;;;14.30;8.05;;;16.10;88.10;;;;;;5032648;28;20052;-81
2021/07/19 03:31:31;;;;;;;10.57;7.35;;;16.20;88.20;;;;;;5045667;28;20541;-81
2021/07/19 03:34:06;;;;;;;16.08;7.75;;;16.30;88.10;;;;;;5052415;28;20474;-82
2021/07/19 03:36:44;;;;;;;11.45;7.25;;;16.30;88.00;;;;;;5052557;28;20060;-82
2021/07/19 03:39:17;;;;;;;15.65;8.07;;;16.30;88.00;;;;;;5044267;28;20045;-81
2021/07/19 03:42:00;;;;;;;12.27;6.93;;;16.30;87.80;;;;;;5064573;28;20049;-82
2021/07/19 03:44:34;;;;;;;12.13;6.90;;;16.30;87.80;;;;;;5047908;28;20375;-81
2021/07/19 03:47:06;;;;;;;12.40;7.35;;;16.30;87.70;;;;;;5031424;28;20486;-82
2021/07/19 03:49:42;;;;;;;10.93;7.43;;;16.30;87.70;;;;;;5047840;28;20252;-81
2021/07/19 03:52:11;;;;;;;13.60;7.57;;;16.30;87.70;;;;;;5032575;28;20422;-82
2021/07/19 03:54:42;;;;;;;14.38;7.50;;;16.30;87.70;;;;;;5030643;28;20049;-81
2021/07/19 03:57:16;;;;;;;13.07;7.13;;;16.30;87.70;;;;;;5047754;28;20071;-81
2021/07/19 03:59:49;;;;;;;9.60;7.10;;;16.30;87.70;;;;;;5047280;28;20049;-82
2021/07/19 04:02:30;;;;;;;13.60;7.75;;;16.20;87.70;;;;;;5067411;28;20076;-81
2021/07/19 04:05:07;;;;;;;23.38;9.85;;;16.20;87.70;;;;;;5066972;28;20393;-82
2021/07/19 04:07:48;;;;;;;25.00;10.60;;;16.10;87.80;;;;;;5027871;28;20049;-81
2021/07/19 04:10:22;;;;;;;22.13;10.43;;;16.00;87.90;;;;;;5029031;28;20052;-82
2021/07/19 04:12:53;;;;;;;23.10;9.27;;;16.10;87.90;;;;;;5047552;28;20049;-82
2021/07/19 04:15:29;;;;;;;18.77;9.43;;;16.00;87.90;;;;;;5032094;28;20064;-81
2021/07/19 04:17:59;;;;;;;17.60;7.93;;;16.00;87.90;;;;;;5050981;28;20046;-81
2021/07/19 04:20:43;;;;;;;16.10;7.32;;;16.00;87.80;;;;;;5034891;28;20053;-82
2021/07/19 04:23:14;;;;;;;11.68;6.30;;;16.00;87.80;;;;;;5036090;28;20033;-82
2021/07/19 04:25:46;;;;;;;14.75;6.07;;;16.00;87.80;;;;;;5067291;28;20597;-82
2021/07/19 04:28:24;;;;;;;12.95;6.28;;;15.90;87.70;;;;;;5051491;28;20037;-82
2021/07/19 04:30:57;;;;;;;12.55;5.95;;;15.90;87.70;;;;;;5060905;28;20380;-81
2021/07/19 04:33:27;;;;;;;12.02;6.18;;;15.90;87.60;;;;;;5054709;28;20041;-82
2021/07/19 04:35:57;;;;;;;12.95;6.10;;;15.90;87.50;;;;;;5056284;28;20053;-81
2021/07/19 04:38:25;;;;;;;13.23;6.10;;;15.80;87.50;;;;;;5053761;28;20056;-82
2021/07/19 04:40:59;;;;;;;10.68;5.88;;;15.80;87.60;;;;;;5031358;28;20061;-81
2021/07/19 04:43:29;;;;;;;18.33;5.95;;;15.80;87.60;;;;;;4998317;28;20046;-82
2021/07/19 04:45:58;;;;;;;11.30;5.43;;;15.80;87.60;;;;;;5018761;28;20049;-82
2021/07/19 04:48:27;;;;;;;13.88;5.43;;;15.80;87.60;;;;;;5031057;28;20042;-82
2021/07/19 04:51:00;;;;;;;15.88;6.75;;;15.80;87.50;;;;;;5015885;28;20057;-82
2021/07/19 04:53:27;;;;;;;14.55;6.95;;;15.80;87.60;;;;;;5015152;28;20088;-82
2021/07/19 04:55:58;;;;;;;13.35;6.65;;;15.80;87.50;;;;;;5020464;28;20049;-81
2021/07/19 04:58:29;;;;;;;18.42;8.65;;;15.90;87.50;;;;;;5050016;28;20058;-82
2021/07/19 05:01:02;;;;;;;22.75;7.70;;;16.00;87.50;;;;;;5042346;28;20052;-82
2021/07/19 05:03:38;;;;;;;22.98;8.63;;;16.00;87.50;;;;;;5034764;28;20056;-82
2021/07/19 05:06:06;;;;;;;;;;;16.10;87.40;;;;;;5064035;28;20049;-82
2021/07/19 05:08:35;;;;;;;24.50;8.43;;;16.10;87.30;;;;;;5046157;28;19921;-82
2021/07/19 05:11:03;;;;;;;17.17;8.18;;;16.10;87.10;;;;;;5037464;28;20045;-82
2021/07/19 05:13:32;;;;;;;8.90;5.20;;;16.10;87.10;;;;;;5035231;28;20042;-81
2021/07/19 05:16:00;;;;;;;10.45;5.85;;;16.20;87.10;;;;;;5037204;28;20056;-81
2021/07/19 05:18:30;;;;;;;4.47;3.45;;;16.20;87.00;;;;;;5034816;28;20038;-81
2021/07/19 05:20:58;;;;;;;6.95;3.17;;;16.30;87.00;;;;;;5037746;28;20049;-81
2021/07/19 05:23:29;;;;;;;8.15;3.72;;;16.30;86.80;;;;;;5043614;28;20037;-83
2021/07/19 05:25:56;;;;;;;10.00;3.60;;;16.50;86.50;;;;;;5054053;28;20401;-81
2021/07/19 05:28:24;;;;;;;4.15;3.00;;;16.60;86.20;;;;;;5041907;28;20045;-81
2021/07/19 05:30:54;;;;;;;7.15;2.60;;;16.70;85.90;;;;;;5038061;28;20079;-82
2021/07/19 05:33:24;;;;;;;6.95;2.55;;;16.80;85.50;;;;;;5036680;28;20501;-82
2021/07/19 05:35:52;;;;;;;4.13;2.58;;;16.80;85.00;;;;;;5045025;28;20064;-81
2021/07/19 05:38:24;;;;;;;7.70;2.47;;;17.00;84.70;;;;;;5033291;28;20423;-81
2021/07/19 05:40:51;;;;;;;4.05;2.10;;;17.00;84.30;;;;;;5044563;28;20067;-82
2021/07/19 05:43:21;;;;;;;5.50;2.10;;;17.20;84.00;;;;;;5027864;28;20499;-81
2021/07/19 05:45:49;;;;;;;1.92;1.70;;;17.30;83.50;;;;;;5013732;28;20042;-81
2021/07/19 05:48:19;;;;;;;4.22;1.98;;;17.40;83.10;;;;;;5068690;28;20045;-81
2021/07/19 05:50:47;;;;;;;5.05;1.98;;;17.60;82.60;;;;;;5032314;28;20054;-82
2021/07/19 05:53:14;;;;;;;4.18;2.00;;;17.70;82.20;;;;;;5032329;28;20056;-81
2021/07/19 05:55:45;;;;;;;2.95;1.55;;;17.80;81.80;;;;;;5036192;28;20053;-82
2021/07/19 05:58:18;;;;;;;3.28;1.60;;;17.80;81.40;;;;;;5045483;28;20438;-82
2021/07/19 06:00:49;;;;;;;2.80;1.60;;;17.80;81.10;;;;;;5037397;28;20044;-81
2021/07/19 06:03:16;;;;;;;4.45;1.50;;;17.90;80.70;;;;;;5037974;28;20052;-82
2021/07/19 06:05:47;;;;;;;4.93;1.80;;;18.10;80.40;;;;;;5041926;28;20056;-84
2021/07/19 06:08:15;;;;;;;6.25;1.55;;;18.10;79.90;;;;;;5045741;28;20479;-81
2021/07/19 06:10:45;;;;;;;4.68;1.23;;;18.20;79.50;;;;;;5045278;28;20045;-81
2021/07/19 06:13:16;;;;;;;3.42;1.20;;;18.30;79.10;;;;;;5049086;28;20391;-81
2021/07/19 06:15:50;;;;;;;3.40;1.20;;;18.40;78.70;;;;;;5045775;28;20048;-82
2021/07/19 06:18:22;;;;;;;4.78;1.20;;;18.50;78.30;;;;;;5041253;28;20037;-81
2021/07/19 06:20:52;;;;;;;10.45;1.90;;;18.60;77.60;;;;;;5036565;28;20052;-81
2021/07/19 06:23:22;;;;;;;6.22;1.27;;;18.70;77.10;;;;;;5062219;28;20334;-81
2021/07/19 06:25:51;;;;;;;4.75;1.10;;;18.80;76.70;;;;;;5038626;28;20045;-82
2021/07/19 06:28:22;;;;;;;6.05;1.08;;;18.80;76.40;;;;;;5045724;28;20061;-81
2021/07/19 06:30:54;;;;;;;1.52;1.08;;;19.00;75.90;;;;;;5034196;28;20041;-81
2021/07/19 06:33:26;;;;;;;2.88;1.02;;;19.00;75.40;;;;;;5032195;28;20403;-82
2021/07/19 06:35:54;;;;;;;6.05;1.10;;;19.10;75.20;;;;;;5035600;28;20045;-81
2021/07/19 06:38:22;;;;;;;4.85;1.25;;;19.20;75.00;;;;;;5033011;28;20045;-81
2021/07/19 06:40:52;;;;;;;6.40;1.50;;;19.30;74.70;;;;;;5032336;28;20438;-81
2021/07/19 06:43:20;;;;;;;4.22;1.05;;;19.30;74.30;;;;;;5033097;28;20042;-81
2021/07/19 06:45:58;;;;;;;4.68;1.30;;;19.40;74.00;;;;;;5033420;28;20121;-81
2021/07/19 06:48:28;;;;;;;4.00;1.05;;;19.50;73.80;;;;;;5033236;28;20523;-82
2021/07/19 06:50:59;;;;;;;5.25;1.00;;;19.60;73.40;;;;;;5065372;28;20045;-82
2021/07/19 06:53:28;;;;;;;2.28;0.80;;;19.60;73.20;;;;;;5032763;28;20056;-82
2021/07/19 06:56:00;;;;;;;5.20;0.90;;;19.70;72.70;;;;;;5032296;28;20483;-82
2021/07/19 06:58:28;;;;;;;1.42;0.80;;;19.70;72.40;;;;;;5033263;28;20045;-82
2021/07/19 07:00:58;;;;;;;5.00;1.33;;;19.80;72.10;;;;;;5033346;28;20049;-82
2021/07/19 07:03:30;;;;;;;1.45;0.85;;;19.80;71.80;;;;;;5033483;28;20052;-82
2021/07/19 07:06:31;;;;;;;1.50;1.00;;;19.80;71.60;;;;;;5043128;28;20037;-82
2021/07/19 07:09:00;;;;;;;3.70;1.00;;;20.00;71.50;;;;;;5034734;28;20057;-83
2021/07/19 07:11:28;;;;;;;16.23;1.35;;;20.10;71.30;;;;;;5033189;28;20058;-82
2021/07/19 07:13:57;;;;;;;2.50;1.05;;;20.10;71.10;;;;;;5033016;28;20053;-81
2021/07/19 07:16:27;;;;;;;3.47;1.02;;;20.20;70.90;;;;;;5030498;28;20049;-81
2021/07/19 07:19:06;;;;;;;4.03;0.98;;;20.30;70.30;;;;;;5032395;28;20491;-81
2021/07/19 07:21:33;;;;;;;5.13;1.20;;;20.30;70.20;;;;;;5032276;28;20049;-81
2021/07/19 07:24:04;;;;;;;5.80;1.13;;;20.40;69.90;;;;;;5032427;28;20049;-81
2021/07/19 07:26:50;;;;;;;7.30;1.23;;;20.40;69.50;;;;;;5032782;28;20045;-80
2021/07/19 07:29:20;;;;;;;2.72;1.10;;;20.50;69.20;;;;;;5031372;28;20037;-81
2021/07/19 07:31:56;;;;;;;4.20;1.08;;;20.60;68.70;;;;;;5029456;28;20117;-81
2021/07/19 07:34:35;;;;;;;6.72;1.10;;;20.70;68.30;;;;;;5031357;28;20037;-81
2021/07/19 07:37:18;;;;;;;6.07;1.50;;;20.80;68.00;;;;;;5014148;28;20403;-81
2021/07/19 07:39:49;;;;;;;7.65;1.10;;;20.80;67.80;;;;;;5031809;28;20045;-80
2021/07/19 07:42:17;;;;;;;13.52;1.55;;;20.90;67.60;;;;;;5032288;28;20056;-81
2021/07/19 07:44:45;;;;;;;5.68;1.70;;;20.90;67.30;;;;;;5031433;28;20422;-81
2021/07/19 07:47:13;;;;;;;7.13;1.40;;;21.00;67.00;;;;;;5032436;28;20045;-81
2021/07/19 07:49:43;;;;;;;4.18;1.00;;;21.10;66.60;;;;;;5032256;28;20053;-81
2021/07/19 07:52:12;;;;;;;4.13;1.08;;;21.20;66.30;;;;;;5030821;28;20487;-81
2021/07/19 07:54:46;;;;;;;8.43;1.30;;;21.30;66.30;;;;;;5032552;28;20061;-81
2021/07/19 07:57:15;;;;;;;5.72;1.50;;;21.30;66.00;;;;;;5032280;28;20490;-81
2021/07/19 07:59:43;;;;;;;11.13;1.40;;;21.40;65.90;;;;;;5047537;28;20049;-81
2021/07/19 08:02:18;;;;;;;8.80;1.42;;;21.50;65.60;;;;;;5032097;28;20072;-81
2021/07/19 08:04:53;;;;;;;3.88;1.30;;;21.60;65.30;;;;;;5032258;28;20048;-80
2021/07/19 08:07:27;;;;;;;3.53;1.30;;;21.80;65.00;;;;;;5030250;28;20057;-80
2021/07/19 08:10:05;;;;;;;3.95;1.38;;;21.80;64.70;;;;;;5030837;28;20057;-80
2021/07/19 08:12:37;;;;;;;4.85;1.40;;;21.90;64.30;;;;;;5030520;28;20043;-80
2021/07/19 08:15:07;;;;;;;2.70;1.20;;;22.00;64.10;;;;;;5031923;28;20428;-80
2021/07/19 08:17:44;;;;;;;8.77;1.10;;;22.10;64.20;;;;;;5032095;28;20396;-80
2021/07/19 08:20:14;;;;;;;5.17;1.27;;;22.20;64.00;;;;;;5030913;28;20298;-80
2021/07/19 08:22:49;;;;;;;3.25;1.65;;;22.30;63.80;;;;;;5031237;28;20057;-80
2021/07/19 08:25:17;;;;;;;4.80;1.15;;;22.30;62.80;;;;;;5030755;28;20049;-80
2021/07/19 08:27:51;;;;;;;12.05;1.60;;;22.40;62.10;;;;;;5031989;28;20045;-80
2021/07/19 08:30:35;;;;;;;5.10;1.27;;;22.50;61.80;;;;;;5031677;28;20041;-81
2021/07/19 08:33:03;;;;;;;3.33;1.45;;;22.60;61.10;;;;;;5030558;28;20057;-80
2021/07/19 08:35:35;;;;;;;3.47;1.25;;;22.70;61.00;;;;;;5031771;28;20045;-80
2021/07/19 08:38:06;;;;;;;6.78;1.33;;;22.80;60.70;;;;;;5031520;28;20103;-80
2021/07/19 08:40:48;;;;;;;7.85;1.30;;;22.90;59.80;;;;;;5031643;28;20484;-80
2021/07/19 08:43:42;;;;;;;3.13;1.15;;;22.90;59.40;;;;;;5047128;28;20061;-79
2021/07/19 08:46:17;;;;;;;2.90;1.17;;;23.00;59.20;;;;;;5030547;28;20041;-80
2021/07/19 08:48:56;;;;;;;;;;;23.00;59.00;;;;;;5031494;28;20054;-80
2021/07/19 08:51:27;;;;;;;5.68;1.27;;;23.10;58.50;;;;;;5030570;28;19921;-80
2021/07/19 08:54:06;;;;;;;5.53;1.35;;;23.20;58.30;;;;;;5031636;28;20391;-80
2021/07/19 08:56:34;;;;;;;2.67;1.05;;;23.20;57.60;;;;;;5031611;28;20049;-80
2021/07/19 08:59:05;;;;;;;3.97;1.10;;;23.30;57.30;;;;;;5031552;28;20045;-80
2021/07/19 09:01:42;;;;;;;6.75;1.20;;;23.30;57.00;;;;;;5031532;28;20056;-80
2021/07/19 09:04:18;;;;;;;5.72;1.38;;;23.40;56.80;;;;;;5035986;28;20056;-80
2021/07/19 09:06:51;;;;;;;2.83;1.50;;;23.60;56.70;;;;;;5039059;28;20049;-80
2021/07/19 09:09:31;;;;;;;3.05;1.25;;;23.70;56.80;;;;;;5037361;28;20116;-81
2021/07/19 09:12:12;;;;;;;8.27;1.60;;;23.80;57.10;;;;;;5035301;28;20068;-80
2021/07/19 09:14:50;;;;;;;4.20;1.33;;;23.90;57.10;;;;;;5035170;28;20041;-80
2021/07/19 09:17:26;;;;;;;2.97;1.40;;;24.00;56.70;;;;;;5036986;28;20220;-80
2021/07/19 09:19:57;;;;;;;3.92;1.13;;;24.10;56.60;;;;;;5034786;28;20045;-80
2021/07/19 09:22:34;;;;;;;3.83;1.40;;;24.10;56.20;;;;;;5034228;28;20033;-80
2021/07/19 09:25:15;;;;;;;5.93;1.75;;;24.20;56.20;;;;;;5034998;28;20046;-80
2021/07/19 09:28:02;;;;;;;5.30;1.30;;;24.20;56.30;;;;;;5034855;28;20057;-79
2021/07/19 09:30:34;;;;;;;6.90;1.85;;;24.30;56.50;;;;;;5050212;28;20045;-80
2021/07/19 09:33:05;;;;;;;4.10;1.55;;;24.30;56.40;;;;;;5034918;28;20037;-79
2021/07/19 09:35:42;;;;;;;2.85;1.50;;;24.40;56.20;;;;;;5035041;28;20072;-79
2021/07/19 09:38:14;;;;;;;8.55;1.70;;;24.50;56.70;;;;;;5034071;28;20037;-80
2021/07/19 09:40:44;;;;;;;6.43;1.80;;;24.60;56.50;;;;;;5034640;28;20077;-79
2021/07/19 09:43:20;;;;;;;11.07;2.03;;;24.80;56.40;;;;;;5034587;28;20407;-80
2021/07/19 09:46:00;;;;;;;10.25;1.92;;;24.80;55.90;;;;;;5017586;28;20042;-80
2021/07/19 09:48:38;;;;;;;13.55;2.28;;;24.80;55.50;;;;;;5034696;28;20045;-79
2021/07/19 09:51:10;;;;;;;6.00;2.00;;;24.90;55.30;;;;;;5034221;28;20045;-80
2021/07/19 09:53:43;;;;;;;4.15;2.00;;;24.90;55.10;;;;;;5034459;28;20065;-80
2021/07/19 09:56:12;;;;;;;9.88;2.00;;;25.00;54.90;;;;;;5034348;28;20053;-80
2021/07/19 09:58:47;;;;;;;23.70;2.25;;;25.10;54.80;;;;;;5036185;28;20041;-80
2021/07/19 10:01:31;;;;;;;9.93;1.55;;;25.10;54.50;;;;;;5034749;28;20057;-80
2021/07/19 10:04:20;;;;;;;6.30;1.92;;;25.10;54.50;;;;;;5034270;28;20222;-80
2021/07/19 10:07:00;;;;;;;9.93;1.77;;;25.20;54.20;;;;;;5033721;28;20418;-80
2021/07/19 10:09:35;;;;;;;17.88;2.25;;;25.30;53.90;;;;;;5034243;28;20049;-80
2021/07/19 10:12:15;;;;;;;4.35;1.73;;;25.40;53.60;;;;;;5032942;28;20402;-79
2021/07/19 10:14:50;;;;;;;3.45;1.80;;;25.50;53.60;;;;;;5033226;28;20399;-81
2021/07/19 10:17:22;;;;;;;8.20;1.70;;;25.60;53.60;;;;;;5048211;28;20052;-80
2021/07/19 10:19:56;;;;;;;11.27;2.10;;;25.80;53.50;;;;;;5033299;28;20147;-81
2021/07/19 10:22:30;;;;;;;9.95;2.10;;;25.90;52.90;;;;;;5033491;28;20057;-80
2021/07/19 10:25:09;;;;;;;7.47;1.80;;;26.00;52.60;;;;;;5034127;28;20049;-80
2021/07/19 10:27:41;;;;;;;7.22;2.40;;;26.10;52.70;;;;;;5032729;28;20053;-80
2021/07/19 10:30:15;;;;;;;7.68;2.00;;;26.30;52.60;;;;;;5034157;28;20060;-80
2021/07/19 10:32:45;;;;;;;15.68;2.58;;;26.50;52.20;;;;;;5033694;28;20486;-81
2021/07/19 10:35:15;;;;;;;5.10;2.15;;;26.60;51.90;;;;;;5032476;28;20132;-81
2021/07/19 10:37:55;;;;;;;8.90;2.17;;;26.70;51.10;;;;;;5032941;28;20384;-81
2021/07/19 10:40:29;;;;;;;6.70;2.13;;;26.80;51.50;;;;;;5033283;28;20057;-80
2021/07/19 10:43:15;;;;;;;6.40;1.70;;;26.80;51.20;;;;;;5033436;28;20395;-80
2021/07/19 10:45:53;;;;;;;4.72;2.00;;;26.90;51.30;;;;;;5033329;28;20041;-80
2021/07/19 10:48:29;;;;;;;4.35;1.95;;;27.10;51.70;;;;;;5048643;28;20054;-80
2021/07/19 10:51:00;;;;;;;5.50;2.13;;;27.30;51.00;;;;;;5032628;28;20045;-80
2021/07/19 10:53:32;;;;;;;4.68;2.00;;;27.60;50.40;;;;;;5033264;28;20045;-80
2021/07/19 10:56:11;;;;;;;10.10;2.40;;;27.70;50.10;;;;;;5033220;28;20053;-80
2021/07/19 10:58:57;;;;;;;4.07;1.90;;;27.80;49.70;;;;;;5047889;28;20054;-80
2021/07/19 11:01:28;;;;;;;9.90;2.15;;;27.90;49.40;;;;;;5033030;28;20053;-81
2021/07/19 11:04:12;;;;;;;6.13;2.42;;;28.00;49.20;;;;;;5033186;28;20490;-80
2021/07/19 11:06:48;;;;;;;5.07;2.05;;;28.10;48.80;;;;;;5033250;28;20053;-80
2021/07/19 11:09:29;;;;;;;5.78;2.22;;;28.30;48.50;;;;;;5038445;28;20514;-80
2021/07/19 11:12:14;;;;;;;8.35;2.40;;;28.30;48.30;;;;;;5031578;28;20353;-80
2021/07/19 11:14:58;;;;;;;12.05;2.17;;;28.40;47.70;;;;;;5032967;28;20403;-80
2021/07/19 11:17:31;;;;;;;7.78;2.35;;;28.50;47.90;;;;;;5048476;28;20056;-80
2021/07/19 11:20:12;;;;;;;3.90;1.92;;;28.60;48.00;;;;;;5032833;28;20514;-80
2021/07/19 11:22:39;;;;;;;3.22;2.20;;;28.60;48.10;;;;;;5032410;28;20050;-83
2021/07/19 11:25:14;;;;;;;5.28;2.22;;;28.70;47.80;;;;;;5032852;28;20045;-81
2021/07/19 11:27:44;;;;;;;5.30;2.22;;;28.70;47.50;;;;;;5032977;28;20052;-81
2021/07/19 11:30:17;;;;;;;7.30;2.10;;;28.80;47.60;;;;;;5033771;28;20049;-81
2021/07/19 11:32:49;;;;;;;7.88;2.38;;;29.00;47.30;;;;;;5034394;28;20514;-82
2021/07/19 11:35:24;;;;;;;3.42;1.98;;;29.00;46.80;;;;;;5026090;28;20061;-80
2021/07/19 11:38:06;;;;;;;5.38;2.10;;;28.80;46.70;;;;;;5050882;28;20053;-81
2021/07/19 11:40:40;;;;;;;3.50;2.10;;;28.50;47.40;;;;;;5014465;28;20050;-81
2021/07/19 11:43:20;;;;;;;7.25;2.22;;;28.60;48.00;;;;;;5025666;28;20075;-81
2021/07/19 11:45:57;;;;;;;5.15;2.20;;;28.90;47.60;;;;;;5033151;28;20095;-81
2021/07/19 11:48:32;;;;;;;5.85;2.28;;;29.10;47.40;;;;;;5033183;28;20049;-82
2021/07/19 11:51:04;;;;;;;9.23;2.53;;;29.30;47.20;;;;;;5032039;28;20050;-81
2021/07/19 11:53:43;;;;;;;4.60;2.40;;;29.50;45.70;;;;;;5032907;28;20049;-82
2021/07/19 11:56:11;;;;;;;8.63;2.33;;;29.60;45.80;;;;;;5031678;28;20075;-82
2021/07/19 11:58:53;;;;;;;4.60;2.42;;;29.80;45.00;;;;;;5032352;28;20485;-82
2021/07/19 12:01:38;;;;;;;5.07;2.28;;;29.80;44.60;;;;;;5035165;28;20054;-82
2021/07/19 12:04:12;;;;;;;8.45;2.20;;;30.00;44.50;;;;;;5032353;28;20533;-82
2021/07/19 12:06:55;;;;;;;5.72;2.03;;;30.10;44.40;;;;;;5031745;28;20383;-82
2021/07/19 12:09:34;;;;;;;6.82;2.05;;;30.00;44.30;;;;;;5047497;28;20049;-82
2021/07/19 12:12:07;;;;;;;7.53;2.17;;;29.60;44.70;;;;;;5032370;28;20050;-82
2021/07/19 12:14:40;;;;;;;6.10;2.22;;;29.30;45.00;;;;;;5063252;28;20045;-82
2021/07/19 12:17:08;;;;;;;4.72;2.20;;;29.00;45.50;;;;;;5032219;28;20037;-82
2021/07/19 12:19:40;;;;;;;3.88;2.10;;;28.80;46.40;;;;;;5032162;28;20060;-81
2021/07/19 12:22:07;;;;;;;6.50;2.30;;;29.00;45.80;;;;;;5031400;28;20042;-82
2021/07/19 12:24:39;;;;;;;12.93;2.55;;;29.30;45.30;;;;;;5032088;28;20418;-82
2021/07/19 12:27:17;;;;;;;18.90;2.70;;;29.70;44.40;;;;;;5032041;28;20042;-82
2021/07/19 12:29:51;;;;;;;14.38;2.30;;;29.80;43.90;;;;;;5031942;28;20053;-82
2021/07/19 12:32:19;;;;;;;8.88;2.03;;;29.80;43.10;;;;;;5047343;28;20403;-81
2021/07/19 12:34:49;;;;;;;9.10;2.10;;;29.90;43.20;;;;;;5032495;28;20057;-82
2021/07/19 12:37:21;;;;;;;8.45;2.25;;;30.10;43.00;;;;;;5031976;28;20056;-82
2021/07/19 12:39:57;;;;;;;5.68;2.28;;;30.40;42.90;;;;;;5034948;28;20049;-82
2021/07/19 12:42:29;;;;;;;5.53;1.77;;;30.80;42.30;;;;;;5036162;28;20050;-82
2021/07/19 12:45:00;;;;;;;7.25;2.10;;;31.30;41.00;;;;;;5035374;28;20072;-82
2021/07/19 12:47:29;;;;;;;7.60;2.05;;;31.60;40.70;;;;;;5036386;28;20046;-82
2021/07/19 12:50:08;;;;;;;4.72;2.10;;;31.90;40.80;;;;;;5035471;28;20406;-82
2021/07/19 12:52:39;;;;;;;7.20;2.53;;;32.50;40.30;;;;;;5034277;28;20061;-82
2021/07/19 12:55:27;;;;;;;7.63;1.95;;;33.00;39.50;;;;;;5035847;28;20076;-82
2021/07/19 12:57:58;;;;;;;24.63;2.78;;;33.40;37.70;;;;;;5035750;28;20041;-82
2021/07/19 13:00:31;;;;;;;;;;;33.80;37.50;;;;;;5036047;28;20045;-82
2021/07/19 13:03:05;;;;;;;8.25;1.90;;;34.10;36.70;;;;;;5036717;28;19928;-82
2021/07/19 13:05:36;;;;;;;3.53;1.70;;;34.40;36.00;;;;;;5036326;28;20060;-83
2021/07/19 13:08:07;;;;;;;;;;;34.60;34.90;;;;;;5041977;28;20057;-82
2021/07/19 13:10:41;;;;;;;23.45;2.75;;;34.80;33.80;;;;;;5050524;28;19927;-85
2021/07/19 13:13:24;;;;;;;4.20;1.80;;;34.90;34.10;;;;;;5018418;28;20391;-81
2021/07/19 13:15:59;;;;;;;7.38;1.98;;;34.90;34.80;;;;;;5024594;28;20378;-82
2021/07/19 13:18:27;;;;;;;4.05;1.98;;;35.20;34.70;;;;;;5033932;28;20057;-81
2021/07/19 13:21:09;;;;;;;3.88;1.77;;;35.30;34.40;;;;;;5034490;28;20041;-80